ADDS METAR Data INFO
IDs: Format: Raw Decoded Include TAF

Data at: 0118 UTC 20 Feb 2018

KEDN 200115Z AUTO 15004KT 10SM OVC050 23/16 A3025 RMK AO2 T02250162
KEDN 200055Z AUTO 16004KT 10SM OVC050 23/16 A3024 RMK AO2 T02250161
KEDN 200035Z AUTO 17005KT 10SM BKN050 BKN060 23/16 A3023 RMK AO2 T02260161
KEDN 200015Z AUTO 16004KT 10SM SCT050 BKN070 23/16 A3023 RMK AO2 T02310158
KEDN 192355Z AUTO 18006KT 10SM SCT050 BKN070 24/16 A3022 RMK AO2 T02370160 10270 20237
KEDN 192335Z AUTO 17005KT 10SM SCT050 SCT055 BKN070 24/16 A3022 RMK AO2 T02390159
KEDN 192315Z AUTO 16003KT 10SM SCT050 BKN065 24/16 A3021 RMK AO2 T02430157
KEDN 192255Z AUTO 16005KT 10SM SCT050 BKN070 BKN075 25/16 A3020 RMK AO2 T02520156
KEDN 192235Z AUTO 18004KT 10SM SCT055 SCT070 26/15 A3020 RMK AO2 T02610154
KEDN 192215Z AUTO 18006KT 10SM BKN070 26/16 A3020 RMK AO2 T02600155
KEDN 192155Z AUTO 19007KT 10SM SCT070 26/16 A3020 RMK AO2 T02630155
KEDN 192135Z AUTO 19007G14KT 10SM BKN070 26/15 A3020 RMK AO2 T02630153
KEDN 192115Z AUTO 18008KT 10SM BKN070 26/16 A3020 RMK AO2 T02600155
KEDN 192055Z AUTO 18006KT 10SM SCT046 OVC070 26/16 A3020 RMK AO2 T02610158
KEDN 192035Z AUTO 14010KT 10SM SCT044 SCT060 OVC070 26/16 A3020 RMK AO2 T02600163
KEDN 192015Z AUTO 18007KT 140V220 10SM SCT046 SCT060 BKN070 27/17 A3020 RMK AO2 T02670165
KEDN 191955Z AUTO 15009G14KT 10SM SCT046 BKN060 26/17 A3021 RMK AO2 T02570166
KEDN 191935Z AUTO 18010G14KT 10SM SCT040 SCT049 BKN070 25/16 A3022 RMK AO2 T02510163
KEDN 191915Z AUTO 16005KT 10SM SCT039 BKN050 OVC055 25/17 A3023 RMK AO2 T02470173
KEDN 191855Z AUTO 15006KT 10SM SCT032 BKN046 OVC065 25/18 A3024 RMK AO2 T02500177
KEDN 191835Z AUTO 17006KT 10SM SCT032 BKN038 BKN044 24/18 A3025 RMK AO2 T02430176
KEDN 191815Z AUTO 15006KT 10SM SCT028 SCT070 25/18 A3027 RMK AO2 T02450180
KEDN 191755Z AUTO 16008KT 10SM SCT022 SCT070 24/18 A3028 RMK AO2 T02410180 10241 20165
KEDN 191735Z AUTO 14004KT 10SM BKN020 BKN070 23/18 A3029 RMK AO2 T02310184
KEDN 191715Z AUTO 14007KT 10SM BKN017 BKN024 BKN070 22/18 A3030 RMK AO2 T02200181
KEDN 191655Z AUTO 18008KT 10SM BKN015 OVC070 21/18 A3030 RMK AO2 T02140184
KEDN 191635Z AUTO 16005KT 10SM OVC011 19/19 A3031 RMK AO2 T01940189
KEDN 191615Z AUTO 15004KT 10SM OVC009 19/19 A3031 RMK AO2 T01890188
KEDN 191555Z AUTO 15005KT 10SM OVC007 19/19 A3031 RMK AO2 T01850185
KEDN 191535Z AUTO 14005KT 7SM OVC005 18/18 A3031 RMK AO2 T01810181
KEDN 191515Z AUTO 15005KT 4SM BR OVC005 18/18 A3031 RMK AO2 T01770177
KEDN 191455Z AUTO 15005KT 7SM OVC005 18/18 A3030 RMK AO2 T01750175
KEDN 191435Z AUTO 15005KT 10SM OVC003 17/17 A3030 RMK AO2 T01730173
KEDN 191415Z AUTO 15005KT 10SM OVC003 17/17 A3030 RMK AO2 T01720172
KEDN 191355Z AUTO 16004KT 10SM OVC003 17/17 A3029 RMK AO2 T01700170
KEDN 191335Z AUTO 16006KT 4SM BR OVC003 17/17 A3029 RMK AO2 T01680168
KEDN 191315Z AUTO 16004KT 1 1/2SM BR OVC003 17/17 A3028 RMK AO2 T01670167
KEDN 191255Z AUTO 15005KT 1/4SM FG OVC003 17/17 A3027 RMK AO2 T01660166
KEDN 191235Z AUTO 00000KT 1/4SM FG OVC003 17/17 A3027 RMK AO2 T01650165
KEDN 191215Z AUTO 00000KT 1/2SM FG OVC003 17/17 A3026 RMK AO2 T01650165
KEDN 191155Z AUTO 00000KT 1/2SM FG OVC003 17/17 A3026 RMK AO2 T01650165 10170 20142
KEDN 191135Z AUTO 00000KT 1/2SM FG OVC003 16/16 A3025 RMK AO2 T01630163
KEDN 191115Z AUTO 00000KT 1/2SM FG OVC003 16/16 A3025 RMK AO2 T01620162
KEDN 191055Z AUTO 00000KT 1/4SM FG OVC003 16/16 A3024 RMK AO2 T01610161
KEDN 191035Z AUTO 17003KT 1/4SM FG OVC003 16/16 A3023 RMK AO2 T01570157
KEDN 191015Z AUTO 00000KT 1/4SM FG OVC003 16/16 A3022 RMK AO2 T01600160
KEDN 190955Z AUTO 00000KT 1/4SM FG OVC003 16/16 A3021 RMK AO2 T01590159
KEDN 190935Z AUTO 00000KT 7SM BKN003 15/15 A3021 RMK AO2 T01540154
KEDN 190915Z AUTO 00000KT 10SM CLR 15/15 A3020 RMK AO2 T01540154
KEDN 190855Z AUTO 00000KT 7SM CLR 14/14 A3020 RMK AO2 T01430143
KEDN 190835Z AUTO 00000KT 10SM CLR 15/15 A3020 RMK AO2 T01460146
KEDN 190815Z AUTO 14003KT 10SM CLR 16/16 A3021 RMK AO2 T01620156
KEDN 190755Z AUTO 00000KT 10SM CLR 15/15 A3021 RMK AO2 T01500148
KEDN 190735Z AUTO 00000KT 10SM CLR 15/15 A3020 RMK AO2 T01520152
KEDN 190715Z AUTO 00000KT 10SM CLR 15/15 A3020 RMK AO2 T01510151
KEDN 190655Z AUTO 00000KT 10SM CLR 16/15 A3021 RMK AO2 T01560151
KEDN 190635Z AUTO 00000KT 10SM CLR 16/15 A3021 RMK AO2 T01620151
KEDN 190615Z AUTO 00000KT 10SM CLR 17/15 A3022 RMK AO2 T01670151
KEDN 190555Z AUTO 12003KT 10SM CLR 17/15 A3022 RMK AO2 T01700152 10231 20165
KEDN 190535Z AUTO 10004KT 10SM SCT080 17/15 A3022 RMK AO2 T01710152
KEDN 190515Z AUTO 10004KT 10SM SCT080 17/15 A3022 RMK AO2 T01700152
KEDN 190455Z AUTO 10003KT 10SM SCT080 17/16 A3022 RMK AO2 T01680157 402630162
KEDN 190435Z AUTO 00000KT 10SM BKN080 17/16 A3022 RMK AO2 T01650160
KEDN 190415Z AUTO 00000KT 10SM OVC080 17/16 A3022 RMK AO2 T01660159
KEDN 190400Z AUTO 00000KT 10SM OVC080 17/16 A3023 RMK AO2 T01690157
KEDN 190335Z AUTO 00000KT 10SM SCT080 17/16 A3023 RMK AO2 T01700158
KEDN 190315Z AUTO 00000KT 10SM CLR 18/16 A3023 RMK AO2 T01750159
KEDN 190255Z AUTO 00000KT 10SM CLR 18/17 A3022 RMK AO2 T01760166
KEDN 190235Z AUTO 00000KT 10SM CLR 18/17 A3022 RMK AO2 T01770165
KEDN 190215Z AUTO 00000KT 10SM CLR 19/16 A3022 RMK AO2 T01910159
KEDN 190155Z AUTO 00000KT 10SM CLR 19/16 A3021 RMK AO2 T01900162
KEDN 190135Z AUTO 00000KT 10SM CLR 20/17 A3020 RMK AO2 T01980165
KEDN 190115Z AUTO 00000KT 10SM CLR 21/17 A3020 RMK AO2 T02070165
KEDN 190055Z AUTO 00000KT 10SM CLR 22/17 A3020 RMK AO2 T02150165
KEDN 190035Z AUTO 00000KT 10SM CLR 22/17 A3019 RMK AO2 T02180165
KEDN 190015Z AUTO 21005KT 10SM BKN055 23/17 A3019 RMK AO2 T02260165
KEDN 182355Z AUTO 00000KT 10SM OVC055 23/18 A3018 RMK AO2 T02270180 10263 20216
KEDN 182335Z AUTO 00000KT 10SM OVC065 23/19 A3018 RMK AO2 T02300185
KEDN 182315Z AUTO 00000KT 10SM OVC065 24/18 A3017 RMK AO2 T02420177
KEDN 182255Z AUTO 00000KT 10SM OVC065 25/17 A3017 RMK AO2 T02500173
KEDN 182235Z AUTO 00000KT 10SM SCT045 OVC055 25/17 A3017 RMK AO2 T02530171
KEDN 182215Z AUTO 00000KT 10SM BKN045 OVC055 26/17 A3017 RMK AO2 T02610170
KEDN 182155Z AUTO 11003KT 10SM SCT049 OVC055 25/17 A3017 RMK AO2 T02520172
KEDN 182135Z AUTO 27005KT 10SM SCT039 SCT046 OVC055 25/17 A3016 RMK AO2 T02540169
KEDN 182115Z AUTO 00000KT 10SM SCT043 BKN055 26/17 A3016 RMK AO2 T02570169
KEDN 182055Z AUTO 00000KT 10SM BKN055 25/17 A3017 RMK AO2 T02490172
KEDN 182035Z AUTO 00000KT 10SM SCT049 25/17 A3017 RMK AO2 T02490172
KEDN 182015Z AUTO 18003KT 10SM SCT033 SCT040 SCT046 26/18 A3017 RMK AO2 T02560178
KEDN 181955Z AUTO 00000KT 10SM SCT032 SCT040 SCT046 24/18 A3018 RMK AO2 T02440180
KEDN 181935Z AUTO 20003KT 10SM SCT025 SCT037 25/18 A3018 RMK AO2 T02450180
KEDN 181915Z AUTO 34003KT 10SM BKN025 BKN032 24/18 A3019 RMK AO2 T02400183
KEDN 181855Z AUTO 00000KT 10SM BKN023 OVC029 22/19 A3020 RMK AO2 T02240186
KEDN 181835Z AUTO 00000KT 10SM BKN018 OVC027 22/19 A3021 RMK AO2 T02240185
KEDN 181815Z AUTO 32003KT 10SM OVC016 22/19 A3022 RMK AO2 T02190186
KEDN 181755Z AUTO 19004KT 10SM OVC014 22/19 A3023 RMK AO2 T02200186 10220 20166
KEDN 181735Z AUTO 23003KT 10SM OVC012 22/19 A3023 RMK AO2 T02150185
KEDN 181715Z AUTO 00000KT 10SM OVC012 21/18 A3024 RMK AO2 T02060183
KEDN 181655Z AUTO 15004KT 10SM OVC012 20/18 A3024 RMK AO2 T02020181
KEDN 181635Z AUTO 11003KT 10SM OVC012 20/18 A3025 RMK AO2 T02000177
KEDN 181615Z AUTO 12004KT 10SM OVC012 20/17 A3025 RMK AO2 T01970174
KEDN 181555Z AUTO 00000KT 10SM OVC014 19/17 A3024 RMK AO2 T01870172
KEDN 181535Z AUTO 04003KT 10SM OVC016 18/18 A3024 RMK AO2 T01800175
KEDN 181515Z AUTO 00000KT 10SM OVC016 18/17 A3024 RMK AO2 T01750173
KEDN 181455Z AUTO 04004KT 10SM OVC018 17/17 A3023 RMK AO2 T01740173
KEDN 181435Z AUTO 00000KT 10SM OVC018 17/17 A3023 RMK AO2 T01710171
KEDN 181415Z AUTO 00000KT 10SM OVC018 17/17 A3022 RMK AO2 T01680168
KEDN 181355Z AUTO 02003KT 10SM BKN018 OVC085 17/17 A3022 RMK AO2 T01680168
KEDN 181335Z AUTO 00000KT 10SM SCT020 OVC085 17/17 A3021 RMK AO2 T01700170